sensor_id;sensor_type;location;lat;lon;timestamp;P1;durP1;ratioP1;P2;durP2;ratioP2
61344;SDS011;47216;42.656;23.232;2022-12-07T19:51:16;53.05;;;35.30;;
61344;SDS011;47216;42.656;23.232;2022-12-07T19:53:43;38.70;;;22.57;;
61344;SDS011;47216;42.656;23.232;2022-12-07T19:56:12;41.10;;;20.97;;
61344;SDS011;47216;42.656;23.232;2022-12-07T19:58:40;42.90;;;22.23;;
61344;SDS011;47216;42.656;23.232;2022-12-07T20:01:07;40.90;;;23.67;;
61344;SDS011;47216;42.656;23.232;2022-12-07T20:03:34;37.90;;;22.37;;
61344;SDS011;47216;42.656;23.232;2022-12-07T20:06:07;38.47;;;22.30;;
61344;SDS011;47216;42.656;23.232;2022-12-07T20:08:34;48.27;;;26.27;;
61344;SDS011;47216;42.656;23.232;2022-12-07T20:11:01;34.17;;;21.63;;
61344;SDS011;47216;42.656;23.232;2022-12-07T20:13:49;38.73;;;22.13;;
61344;SDS011;47216;42.656;23.232;2022-12-07T20:16:14;36.23;;;24.20;;
61344;SDS011;47216;42.656;23.232;2022-12-07T20:18:42;51.53;;;26.37;;
61344;SDS011;47216;42.656;23.232;2022-12-07T20:21:10;42.43;;;23.63;;
61344;SDS011;47216;42.656;23.232;2022-12-07T20:23:37;49.77;;;27.60;;
61344;SDS011;47216;42.656;23.232;2022-12-07T20:26:04;45.17;;;24.47;;
61344;SDS011;47216;42.656;23.232;2022-12-07T20:28:33;47.20;;;26.47;;
61344;SDS011;47216;42.656;23.232;2022-12-07T20:31:00;53.03;;;26.80;;
61344;SDS011;47216;42.656;23.232;2022-12-07T20:33:27;59.57;;;25.67;;
61344;SDS011;47216;42.656;23.232;2022-12-07T20:35:57;44.83;;;24.20;;
61344;SDS011;47216;42.656;23.232;2022-12-07T20:38:26;43.27;;;22.60;;
61344;SDS011;47216;42.656;23.232;2022-12-07T20:40:57;36.33;;;18.27;;
61344;SDS011;47216;42.656;23.232;2022-12-07T20:43:25;37.83;;;18.20;;
61344;SDS011;47216;42.656;23.232;2022-12-07T20:45:51;54.80;;;32.50;;
61344;SDS011;47216;42.656;23.232;2022-12-07T20:48:18;39.00;;;21.20;;
61344;SDS011;47216;42.656;23.232;2022-12-07T20:50:45;39.77;;;21.87;;
61344;SDS011;47216;42.656;23.232;2022-12-07T20:53:12;52.33;;;30.00;;
61344;SDS011;47216;42.656;23.232;2022-12-07T20:55:41;56.90;;;26.43;;
61344;SDS011;47216;42.656;23.232;2022-12-07T20:58:07;42.03;;;22.87;;
61344;SDS011;47216;42.656;23.232;2022-12-07T21:00:34;42.37;;;21.63;;
61344;SDS011;47216;42.656;23.232;2022-12-07T21:03:02;33.10;;;18.03;;
61344;SDS011;47216;42.656;23.232;2022-12-07T21:05:29;36.60;;;19.90;;
61344;SDS011;47216;42.656;23.232;2022-12-07T21:07:56;48.67;;;26.33;;
61344;SDS011;47216;42.656;23.232;2022-12-07T21:10:23;43.30;;;20.97;;
61344;SDS011;47216;42.656;23.232;2022-12-07T21:12:51;68.03;;;36.67;;
61344;SDS011;47216;42.656;23.232;2022-12-07T21:15:18;38.73;;;21.43;;
61344;SDS011;47216;42.656;23.232;2022-12-07T21:17:45;38.77;;;20.87;;
61344;SDS011;47216;42.656;23.232;2022-12-07T21:20:11;37.13;;;19.40;;
61344;SDS011;47216;42.656;23.232;2022-12-07T21:22:38;45.90;;;22.60;;
61344;SDS011;47216;42.656;23.232;2022-12-07T21:25:05;37.30;;;19.23;;
61344;SDS011;47216;42.656;23.232;2022-12-07T21:27:33;59.83;;;39.17;;
61344;SDS011;47216;42.656;23.232;2022-12-07T21:30:01;43.70;;;28.17;;
61344;SDS011;47216;42.656;23.232;2022-12-07T21:32:28;54.23;;;25.67;;
61344;SDS011;47216;42.656;23.232;2022-12-07T21:34:55;54.23;;;28.17;;
61344;SDS011;47216;42.656;23.232;2022-12-07T21:37:22;49.23;;;25.13;;
61344;SDS011;47216;42.656;23.232;2022-12-07T21:39:49;62.27;;;26.40;;
61344;SDS011;47216;42.656;23.232;2022-12-07T21:42:15;53.27;;;25.87;;
61344;SDS011;47216;42.656;23.232;2022-12-07T21:44:42;47.13;;;24.43;;
61344;SDS011;47216;42.656;23.232;2022-12-07T21:47:10;49.43;;;23.13;;
61344;SDS011;47216;42.656;23.232;2022-12-07T21:49:37;37.70;;;20.53;;
61344;SDS011;47216;42.656;23.232;2022-12-07T21:52:04;42.87;;;21.30;;
61344;SDS011;47216;42.656;23.232;2022-12-07T21:54:31;43.53;;;21.77;;
61344;SDS011;47216;42.656;23.232;2022-12-07T21:56:59;43.47;;;22.33;;
61344;SDS011;47216;42.656;23.232;2022-12-07T21:59:25;33.93;;;18.87;;
61344;SDS011;47216;42.656;23.232;2022-12-07T22:01:52;35.40;;;17.60;;
61344;SDS011;47216;42.656;23.232;2022-12-07T22:04:21;40.60;;;18.10;;
61344;SDS011;47216;42.656;23.232;2022-12-07T22:06:49;48.20;;;27.17;;
61344;SDS011;47216;42.656;23.232;2022-12-07T22:09:17;29.70;;;16.70;;
61344;SDS011;47216;42.656;23.232;2022-12-07T22:11:46;32.93;;;17.50;;
61344;SDS011;47216;42.656;23.232;2022-12-07T22:14:12;44.30;;;24.67;;
61344;SDS011;47216;42.656;23.232;2022-12-07T22:16:57;41.73;;;26.80;;
61344;SDS011;47216;42.656;23.232;2022-12-07T22:19:25;37.57;;;19.93;;
61344;SDS011;47216;42.656;23.232;2022-12-07T22:21:52;34.40;;;22.83;;
61344;SDS011;47216;42.656;23.232;2022-12-07T22:24:19;38.70;;;20.50;;
61344;SDS011;47216;42.656;23.232;2022-12-07T22:26:46;32.17;;;18.00;;
61344;SDS011;47216;42.656;23.232;2022-12-07T22:29:13;30.73;;;17.57;;
61344;SDS011;47216;42.656;23.232;2022-12-07T22:31:39;29.57;;;16.90;;
61344;SDS011;47216;42.656;23.232;2022-12-07T22:34:06;28.53;;;16.33;;
61344;SDS011;47216;42.656;23.232;2022-12-07T22:36:41;35.80;;;24.10;;
61344;SDS011;47216;42.656;23.232;2022-12-07T22:39:08;32.27;;;20.17;;
61344;SDS011;47216;42.656;23.232;2022-12-07T22:41:35;31.77;;;19.93;;
61344;SDS011;47216;42.656;23.232;2022-12-07T22:44:03;35.90;;;19.30;;
61344;SDS011;47216;42.656;23.232;2022-12-07T22:46:31;27.37;;;17.40;;
61344;SDS011;47216;42.656;23.232;2022-12-07T22:48:58;28.97;;;16.30;;
61344;SDS011;47216;42.656;23.232;2022-12-07T22:51:25;28.43;;;15.20;;
61344;SDS011;47216;42.656;23.232;2022-12-07T22:53:55;30.13;;;15.67;;
61344;SDS011;47216;42.656;23.232;2022-12-07T22:56:24;30.30;;;17.10;;
61344;SDS011;47216;42.656;23.232;2022-12-07T22:58:52;28.00;;;15.97;;
61344;SDS011;47216;42.656;23.232;2022-12-07T23:01:19;32.27;;;16.17;;
61344;SDS011;47216;42.656;23.232;2022-12-07T23:03:47;29.67;;;17.30;;
61344;SDS011;47216;42.656;23.232;2022-12-07T23:06:15;35.53;;;19.33;;
61344;SDS011;47216;42.656;23.232;2022-12-07T23:08:44;33.10;;;16.63;;
61344;SDS011;47216;42.656;23.232;2022-12-07T23:11:13;30.37;;;15.37;;
61344;SDS011;47216;42.656;23.232;2022-12-07T23:14:01;27.10;;;15.20;;
61344;SDS011;47216;42.656;23.232;2022-12-07T23:16:28;22.33;;;13.87;;
61344;SDS011;47216;42.656;23.232;2022-12-07T23:18:55;30.93;;;17.77;;
61344;SDS011;47216;42.656;23.232;2022-12-07T23:21:22;35.50;;;17.87;;
61344;SDS011;47216;42.656;23.232;2022-12-07T23:23:48;24.67;;;16.37;;
61344;SDS011;47216;42.656;23.232;2022-12-07T23:26:17;29.10;;;17.13;;
61344;SDS011;47216;42.656;23.232;2022-12-07T23:28:43;32.97;;;16.97;;
61344;SDS011;47216;42.656;23.232;2022-12-07T23:31:11;29.57;;;16.20;;
61344;SDS011;47216;42.656;23.232;2022-12-07T23:33:39;25.50;;;15.33;;
61344;SDS011;47216;42.656;23.232;2022-12-07T23:36:07;26.30;;;14.43;;
61344;SDS011;47216;42.656;23.232;2022-12-07T23:38:35;29.30;;;14.77;;
61344;SDS011;47216;42.656;23.232;2022-12-07T23:41:03;28.90;;;14.27;;
61344;SDS011;47216;42.656;23.232;2022-12-07T23:43:33;24.50;;;13.93;;
61344;SDS011;47216;42.656;23.232;2022-12-07T23:46:00;23.70;;;12.93;;
61344;SDS011;47216;42.656;23.232;2022-12-07T23:48:27;24.73;;;13.13;;
61344;SDS011;47216;42.656;23.232;2022-12-07T23:50:57;25.50;;;12.20;;
61344;SDS011;47216;42.656;23.232;2022-12-07T23:53:24;20.60;;;12.93;;
61344;SDS011;47216;42.656;23.232;2022-12-07T23:55:52;21.87;;;13.77;;
61344;SDS011;47216;42.656;23.232;2022-12-07T23:58:19;21.70;;;12.40;;
